LFRN/RNS METAR and TAF weather

Enter ICAO airport designator
Station Type Date Time Source
LFRN METAR 2023/02/05 13:30 UTC NOAA

LFRN 051330Z AUTO 04009KT 9999 BKN027 12/06 Q1042 NOSIG


Station Type Date Time Source
LFRN Decoded METAR 2023/02/05 13:30 UTC NOAA

Rennes, France (LFRN) 48-04N 001-44W 37M
Feb 05, 2023 - 08:30 AM EST / 2023.02.05 1330 UTC
Wind: from the NE (040 degrees) at 10 MPH (9 KT):0
Visibility: greater than 7 mile(s):0
Sky conditions: mostly cloudy
Temperature: 53 F (12 C)
Dew Point: 42 F (6 C)
Relative Humidity: 66%
Pressure (altimeter): 30.77 in. Hg (1042 hPa)
ob: LFRN 051330Z AUTO 04009KT 9999 BKN027 12/06 Q1042 NOSIG
cycle: 13

Station Type Date Time Source
LFRN TAF 2023/02/05 12:21 UTC NOAA

TAF LFRN 051100Z 0512/0612 03008KT 9999 BKN020 PROB40
TEMPO 0512/0514 BKN012
TEMPO 0600/0607 2000 BR

Example: see airport list